Wawasan Ruby — 3EVU7 — position and weather

sailwx.info

Track history (hours):
 
Tides and Currents Weather Stations Pressure Air Temp Water Temp Dewpoint Dewpoint Depression Visibility Wind Speed Wind Dir Waves Ship Positions

Wawasan Ruby

Last reported at 2018-Apr-22 06:13 UTC. Time now 2018-Apr-23 07:55 UTC.
Position N 31°07' E 121°28'.

Length 146 m; draft 6 m.

Type: Tanker. MMSI: 355619000.

Date/timePositionNaut miles runAvg speedWind from/ knotsBaromVisibWave heightAir tempDewpointWater temp
2018-Apr-22 06:13N 31°07' E 121°28'0 0.0
2018-Apr-22 05:37N 31°07' E 121°28'1 0.0
2018-Apr-21 06:25N 31°06' E 121°27'  
2018-Apr-19 00:01N 31°06' E 121°27'0 0.0
2018-Apr-16 22:19N 31°06' E 121°27'0 0.0
2018-Apr-14 20:13N 31°06' E 121°27'0 0.0
2018-Apr-14 19:43N 31°06' E 121°27'0 0.0
2018-Apr-14 19:25N 31°06' E 121°27'0 0.0
2018-Apr-14 18:55N 31°06' E 121°27'0 0.0
2018-Apr-14 18:19N 31°06' E 121°27'0 0.0
2018-Apr-13 06:49N 31°07' E 121°28'7 4.4
2018-Apr-13 05:19N 31°13' E 121°30'2 6.2
2018-Apr-13 05:00N 31°15' E 121°29'9 4.7
2018-Apr-13 03:07N 31°24' E 121°31'1 5.8
2018-Apr-13 02:55N 31°24' E 121°32'2310.3
2018-Apr-13 00:43N 31°10' E 121°53'2 7.9
2018-Apr-13 00:30N 31°09' E 121°54'1221.9
2018-Apr-12 23:57N 31°04' E 122°07'1 3.3
2018-Apr-12 23:30N 31°03' E 122°09'3 5.8
2018-Apr-12 22:59N 31°03' E 122°12'2 4.7
2018-Apr-12 22:29N 31°03' E 122°15'4 6.4
2018-Apr-12 21:55N 31°02' E 122°19'3 6.8
2018-Apr-12 21:29N 31°02' E 122°23'7 7.6
2018-Apr-12 20:33N 31°00' E 122°31'110.4
2018-Apr-12 20:29N 31°01' E 122°31'1120.1
2018-Apr-12 19:56N 31°12' E 122°31'3 5.5
2018-Apr-12 19:18N 31°16' E 122°31'512.5
2018-Apr-12 18:56N 31°20' E 122°31'510.5
2018-Apr-12 18:29N 31°24' E 122°35'2346.7
2018-Apr-12 18:00N 31°46' E 122°39'917.1
2018-Apr-12 17:27N 31°37' E 122°37'1015.4
2018-Apr-12 16:46N 31°47' E 122°39'3 7.3
2018-Apr-12 16:23N 31°50' E 122°40'512.5
2018-Apr-12 16:00N 31°55' E 122°42'812.4
2018-Apr-12 15:23N 32°02' E 122°45'512.1
2018-Apr-12 15:00N 32°06' E 122°47'1012.0
2018-Apr-12 14:10N 32°14' E 122°53'311.8
2018-Apr-12 13:54N 32°17' E 122°56'7012.0
2018-Apr-12 08:04N 32°29' E 124°17'112.9
2018-Apr-12 07:59N 32°29' E 124°19'712.9
2018-Apr-12 07:28N 32°30' E 124°26'  
Track history (hours):
 
Tides and Currents Weather Stations Pressure Air Temp Water Temp Dewpoint Dewpoint Depression Visibility Wind Speed Wind Dir Waves Ship Positions

Wawasan Ruby

Last reported at 2018-Apr-22 06:13 UTC. Time now 2018-Apr-23 07:55 UTC.
Position N 31°07' E 121°28'.

Length 146 m; draft 6 m.

Type: Tanker. MMSI: 355619000.

Date/timePositionNaut miles runAvg speedWind from/ knotsBaromVisibWave heightAir tempDewpointWater temp
2018-Apr-22 06:13N 31°07' E 121°28'0 0.0
2018-Apr-22 05:37N 31°07' E 121°28'1 0.0
2018-Apr-21 06:25N 31°06' E 121°27'  
2018-Apr-19 00:01N 31°06' E 121°27'0 0.0
2018-Apr-16 22:19N 31°06' E 121°27'0 0.0
2018-Apr-14 20:13N 31°06' E 121°27'0 0.0
2018-Apr-14 19:43N 31°06' E 121°27'0 0.0
2018-Apr-14 19:25N 31°06' E 121°27'0 0.0
2018-Apr-14 18:55N 31°06' E 121°27'0 0.0
2018-Apr-14 18:19N 31°06' E 121°27'0 0.0
2018-Apr-13 06:49N 31°07' E 121°28'7 4.4
2018-Apr-13 05:19N 31°13' E 121°30'2 6.2
2018-Apr-13 05:00N 31°15' E 121°29'9 4.7
2018-Apr-13 03:07N 31°24' E 121°31'1 5.8
2018-Apr-13 02:55N 31°24' E 121°32'2310.3
2018-Apr-13 00:43N 31°10' E 121°53'2 7.9
2018-Apr-13 00:30N 31°09' E 121°54'1221.9
2018-Apr-12 23:57N 31°04' E 122°07'1 3.3
2018-Apr-12 23:30N 31°03' E 122°09'3 5.8
2018-Apr-12 22:59N 31°03' E 122°12'2 4.7
2018-Apr-12 22:29N 31°03' E 122°15'4 6.4
2018-Apr-12 21:55N 31°02' E 122°19'3 6.8
2018-Apr-12 21:29N 31°02' E 122°23'7 7.6
2018-Apr-12 20:33N 31°00' E 122°31'110.4
2018-Apr-12 20:29N 31°01' E 122°31'1120.1
2018-Apr-12 19:56N 31°12' E 122°31'3 5.5
2018-Apr-12 19:18N 31°16' E 122°31'512.5
2018-Apr-12 18:56N 31°20' E 122°31'510.5
2018-Apr-12 18:29N 31°24' E 122°35'2346.7
2018-Apr-12 18:00N 31°46' E 122°39'917.1
2018-Apr-12 17:27N 31°37' E 122°37'1015.4
2018-Apr-12 16:46N 31°47' E 122°39'3 7.3
2018-Apr-12 16:23N 31°50' E 122°40'512.5
2018-Apr-12 16:00N 31°55' E 122°42'812.4
2018-Apr-12 15:23N 32°02' E 122°45'512.1
2018-Apr-12 15:00N 32°06' E 122°47'1012.0
2018-Apr-12 14:10N 32°14' E 122°53'311.8
2018-Apr-12 13:54N 32°17' E 122°56'7012.0
2018-Apr-12 08:04N 32°29' E 124°17'112.9
2018-Apr-12 07:59N 32°29' E 124°19'712.9
2018-Apr-12 07:28N 32°30' E 124°26'  

Dump ship's entire track history